Weston, Wisconsin
Current Conditions -  °F | °C
As of 7:54 AM on Monday 20 Oct 2014 (Local Time) from KAUW Reporting Station
Broken Clouds Broken Clouds  
Wind Chill: 39°   Ceiling: 3300
Heat Index: 43°   Visibility: 10mi
Dew Point: 41°   Wind: 6mph
Humidity: 93%   Direction: 330°NNW
Pressure: 29.86"   Gusts: NA
Location:  44.8809°N, 89.6196°W
Report Text: KAUW 201254Z AUTO 33005KT 10SM BKN033 06/05 A2986 RMK AO2 SLP121 T00610050
Loading
Personal Weather Stations






























Interactive Weather Map
Tropical Storm Tracking
New forecast layout! Learn more

10-Day Weather Forecast

Advertisements
Track Severe Weather on mobile